createdAt,value
2019-01-24T00:01:32.208Z,25.60
2019-01-24T00:04:05.001Z,30.17
2019-01-24T00:06:37.892Z,30.53
2019-01-24T00:09:11.053Z,27.30
2019-01-24T00:11:44.033Z,30.73
2019-01-24T00:14:16.840Z,31.17
2019-01-24T00:16:49.656Z,29.07
2019-01-24T00:19:22.498Z,27.80
2019-01-24T00:21:55.386Z,26.37
2019-01-24T00:24:28.171Z,23.80
2019-01-24T00:27:00.946Z,23.60
2019-01-24T00:29:33.732Z,24.93
2019-01-24T00:32:06.559Z,24.97
2019-01-24T00:34:39.315Z,25.67
2019-01-24T00:37:12.206Z,25.53
2019-01-24T00:39:44.903Z,25.90
2019-01-24T00:42:17.682Z,23.67
2019-01-24T00:44:50.381Z,24.77
2019-01-24T00:47:23.104Z,28.60
2019-01-24T00:49:55.902Z,28.13
2019-01-24T00:52:28.699Z,28.40
2019-01-24T00:55:01.551Z,28.33
2019-01-24T00:57:35.447Z,27.37
2019-01-24T01:00:15.418Z,25.83
2019-01-24T01:02:48.354Z,29.40
2019-01-24T01:05:21.228Z,26.50
2019-01-24T01:07:54.276Z,25.90
2019-01-24T01:10:27.142Z,28.13
2019-01-24T01:13:00.042Z,25.23
2019-01-24T01:15:32.942Z,24.80
2019-01-24T01:18:05.801Z,27.33
2019-01-24T01:20:38.783Z,25.83
2019-01-24T01:23:11.492Z,26.50
2019-01-24T01:25:44.275Z,27.80
2019-01-24T01:28:17.065Z,26.30
2019-01-24T01:30:57.316Z,27.50
2019-01-24T01:36:08.382Z,25.00
2019-01-24T01:38:41.176Z,23.77
2019-01-24T01:41:14.003Z,24.33
2019-01-24T01:43:47.752Z,20.87
2019-01-24T01:46:20.462Z,23.70
2019-01-24T01:48:53.182Z,21.90
2019-01-24T01:51:26.340Z,21.67
2019-01-24T01:53:59.161Z,24.13
2019-01-24T01:56:31.967Z,19.93
2019-01-24T01:59:04.656Z,20.27
2019-01-24T02:01:37.399Z,17.63
2019-01-24T02:04:10.179Z,22.40
2019-01-24T02:06:42.902Z,24.73
2019-01-24T02:09:15.739Z,26.43
2019-01-24T02:11:48.463Z,23.93
2019-01-24T02:14:21.157Z,26.53
2019-01-24T02:16:53.896Z,24.90
2019-01-24T02:19:26.618Z,23.23
2019-01-24T02:21:59.435Z,23.43
2019-01-24T02:24:32.127Z,22.10
2019-01-24T02:27:04.823Z,25.20
2019-01-24T02:29:37.524Z,21.97
2019-01-24T02:32:10.249Z,24.73
2019-01-24T02:34:49.517Z,23.17
2019-01-24T02:37:17.358Z,26.17
2019-01-24T02:39:50.169Z,24.27
2019-01-24T02:42:22.910Z,23.03
2019-01-24T02:44:55.623Z,20.10
2019-01-24T02:47:28.799Z,21.83
2019-01-24T02:50:02.626Z,23.80
2019-01-24T02:52:35.331Z,23.50
2019-01-24T02:55:10.190Z,26.23
2019-01-24T02:57:42.983Z,27.90
2019-01-24T03:00:21.420Z,24.87
2019-01-24T03:02:54.154Z,24.00
2019-01-24T03:05:26.924Z,24.87
2019-01-24T03:07:59.643Z,15.93
2019-01-24T03:10:32.347Z,24.87
2019-01-24T03:13:05.055Z,26.57
2019-01-24T03:15:37.759Z,29.90
2019-01-24T03:18:10.616Z,25.67
2019-01-24T03:20:43.371Z,28.00
2019-01-24T03:23:16.099Z,28.30
2019-01-24T03:25:48.794Z,28.93
2019-01-24T03:28:21.496Z,31.47
2019-01-24T03:30:54.380Z,28.00
2019-01-24T03:33:27.290Z,29.77
2019-01-24T03:36:00.033Z,28.10
2019-01-24T03:38:32.724Z,26.23
2019-01-24T03:41:05.465Z,22.77
2019-01-24T03:43:38.363Z,24.53
2019-01-24T03:46:13.595Z,24.17
2019-01-24T03:48:47.483Z,24.53
2019-01-24T03:51:20.321Z,20.37
2019-01-24T03:53:53.114Z,22.27
2019-01-24T03:56:25.818Z,21.73
2019-01-24T03:58:58.513Z,22.80
2019-01-24T04:01:31.260Z,21.93
2019-01-24T04:04:03.989Z,20.10
2019-01-24T04:06:36.695Z,22.20
2019-01-24T04:09:10.328Z,26.23
2019-01-24T04:11:43.102Z,25.43
2019-01-24T04:14:15.785Z,15.10
2019-01-24T04:16:48.593Z,22.40
2019-01-24T04:19:21.266Z,21.03
2019-01-24T04:21:54.005Z,22.50
2019-01-24T04:24:26.713Z,22.40
2019-01-24T04:26:59.429Z,24.17
2019-01-24T04:29:32.126Z,24.93
2019-01-24T04:32:04.949Z,24.30
2019-01-24T04:34:37.724Z,26.90
2019-01-24T04:37:10.426Z,25.80
2019-01-24T04:39:43.191Z,28.63
2019-01-24T04:42:15.918Z,28.50
2019-01-24T04:44:48.682Z,27.03
2019-01-24T04:47:21.403Z,25.77
2019-01-24T04:49:54.156Z,26.03
2019-01-24T04:52:26.849Z,30.73
2019-01-24T04:54:59.595Z,29.80
2019-01-24T04:57:32.398Z,23.53
2019-01-24T05:00:09.360Z,21.17
2019-01-24T05:02:42.156Z,20.70
2019-01-24T05:05:14.903Z,20.03
2019-01-24T05:07:47.605Z,25.87
2019-01-24T05:10:20.327Z,22.80
2019-01-24T05:12:53.262Z,23.60
2019-01-24T05:15:27.022Z,22.97
2019-01-24T05:17:59.834Z,22.10
2019-01-24T05:20:32.526Z,22.90
2019-01-24T05:23:05.359Z,23.07
2019-01-24T05:25:38.154Z,24.30
2019-01-24T05:28:11.071Z,19.70
2019-01-24T05:30:43.767Z,24.03
2019-01-24T05:33:16.472Z,22.20
2019-01-24T05:35:49.310Z,22.03
2019-01-24T05:38:22.021Z,23.50
2019-01-24T05:40:54.727Z,20.00
2019-01-24T05:43:27.436Z,20.77
2019-01-24T05:46:00.166Z,22.87
2019-01-24T05:48:32.931Z,17.37
2019-01-24T05:51:05.659Z,25.50
2019-01-24T05:53:38.358Z,19.87
2019-01-24T05:56:13.430Z,22.70
2019-01-24T05:58:46.202Z,21.90
2019-01-24T06:01:19.370Z,32.07
2019-01-24T06:03:52.113Z,25.57
2019-01-24T06:06:24.807Z,26.13
2019-01-24T06:08:57.536Z,18.47
2019-01-24T06:11:30.218Z,17.23
2019-01-24T06:14:04.526Z,18.00
2019-01-24T06:16:37.224Z,16.97
2019-01-24T06:19:10.122Z,17.70
2019-01-24T06:21:42.950Z,17.93
2019-01-24T06:24:15.722Z,17.43
2019-01-24T06:26:48.449Z,17.93
2019-01-24T06:29:21.149Z,14.87
2019-01-24T06:31:53.887Z,17.60
2019-01-24T06:34:26.566Z,30.87
2019-01-24T06:36:59.261Z,21.37
2019-01-24T06:39:31.943Z,18.60
2019-01-24T06:42:04.663Z,20.37
2019-01-24T06:44:37.368Z,19.30
2019-01-24T06:47:10.105Z,18.07
2019-01-24T06:49:42.852Z,16.17
2019-01-24T06:52:15.564Z,16.97
2019-01-24T06:54:48.257Z,16.90
2019-01-24T06:57:20.966Z,17.73
2019-01-24T06:59:54.935Z,17.07
2019-01-24T07:02:27.642Z,15.73
2019-01-24T07:05:00.340Z,17.10
2019-01-24T07:07:33.020Z,19.97
2019-01-24T07:10:08.074Z,16.60
2019-01-24T07:12:40.841Z,19.67
2019-01-24T07:15:17.207Z,20.20
2019-01-24T07:17:52.060Z,16.20
2019-01-24T07:20:25.863Z,20.13
2019-01-24T07:22:58.638Z,17.43
2019-01-24T07:25:31.559Z,18.50
2019-01-24T07:28:04.344Z,20.63
2019-01-24T07:30:37.088Z,21.67
2019-01-24T07:33:09.922Z,18.93
2019-01-24T07:35:42.622Z,18.43
2019-01-24T07:38:15.441Z,17.33
2019-01-24T07:40:48.220Z,18.30
2019-01-24T07:43:20.945Z,17.47
2019-01-24T07:45:53.817Z,14.23
2019-01-24T07:48:26.607Z,14.40
2019-01-24T07:50:59.343Z,16.83
2019-01-24T07:53:32.151Z,19.20
2019-01-24T07:56:04.875Z,21.17
2019-01-24T07:58:37.737Z,18.67
2019-01-24T08:01:10.462Z,21.73
2019-01-24T08:13:48.140Z,24.10
2019-01-24T08:16:20.820Z,18.57
2019-01-24T08:18:53.641Z,21.30
2019-01-24T08:21:26.416Z,22.23
2019-01-24T08:23:59.232Z,21.17
2019-01-24T08:26:32.010Z,17.57
2019-01-24T08:29:04.891Z,18.63
2019-01-24T08:31:37.812Z,17.90
2019-01-24T08:34:10.805Z,20.03
2019-01-24T08:36:43.625Z,21.63
2019-01-24T08:39:16.586Z,18.17
2019-01-24T08:41:49.473Z,19.70
2019-01-24T08:44:22.326Z,20.03
2019-01-24T08:46:55.130Z,18.33
2019-01-24T08:49:27.919Z,18.63
2019-01-24T08:52:00.759Z,20.67
2019-01-24T08:54:33.551Z,20.83
2019-01-24T08:57:06.265Z,18.50
2019-01-24T08:59:39.015Z,20.47
2019-01-24T09:02:11.778Z,19.00
2019-01-24T09:04:44.562Z,22.47
2019-01-24T09:07:17.429Z,18.73
2019-01-24T09:09:50.454Z,15.27
2019-01-24T09:12:29.999Z,18.20
2019-01-24T09:14:57.897Z,18.03
2019-01-24T09:17:30.742Z,20.27
2019-01-24T09:20:03.549Z,21.93
2019-01-24T09:22:36.408Z,28.07
2019-01-24T09:25:09.388Z,23.47
2019-01-24T09:27:42.312Z,17.17
2019-01-24T09:30:21.709Z,26.40
2019-01-24T09:32:54.617Z,17.10
2019-01-24T09:35:27.528Z,20.43
2019-01-24T09:38:00.289Z,25.20
2019-01-24T09:40:33.110Z,18.03
2019-01-24T09:43:05.962Z,16.33
2019-01-24T09:45:38.806Z,20.50
2019-01-24T09:48:11.555Z,19.77
2019-01-24T09:50:45.004Z,18.17
2019-01-24T09:53:17.821Z,17.73
2019-01-24T09:55:50.739Z,19.07
2019-01-24T09:59:50.305Z,16.30
2019-01-24T10:03:45.592Z,15.63
2019-01-24T10:07:22.633Z,20.67
2019-01-24T10:09:56.659Z,16.97
2019-01-24T10:12:29.630Z,18.40
2019-01-24T10:15:02.581Z,24.20
2019-01-24T10:17:36.540Z,18.43
2019-01-24T10:24:02.761Z,21.67
2019-01-24T10:27:35.202Z,18.80
2019-01-24T10:30:50.669Z,22.90
2019-01-24T10:34:03.382Z,22.07
2019-01-24T10:36:51.145Z,19.40
2019-01-24T10:39:48.042Z,17.93
2019-01-24T10:43:09.621Z,16.73
2019-01-24T10:46:25.185Z,16.83
2019-01-24T10:49:01.214Z,17.53
2019-01-24T10:51:45.141Z,15.30
2019-01-24T10:54:59.309Z,17.07
2019-01-24T10:58:10.444Z,17.93
2019-01-24T11:01:39.194Z,18.47
2019-01-24T11:04:29.904Z,22.73
2019-01-24T11:07:36.163Z,17.67
2019-01-24T11:10:31.308Z,19.30
2019-01-24T11:13:35.781Z,18.80
2019-01-24T11:16:20.871Z,21.13
2019-01-24T11:19:08.903Z,20.47
2019-01-24T11:22:09.521Z,21.93
2019-01-24T11:25:15.342Z,14.30
2019-01-24T11:28:19.948Z,19.30
2019-01-24T11:31:17.431Z,15.30
2019-01-24T11:34:22.817Z,16.13
2019-01-24T11:37:07.064Z,14.43
2019-01-24T11:40:05.727Z,15.87
2019-01-24T11:42:55.189Z,20.70
2019-01-24T11:46:08.004Z,25.33
2019-01-24T11:48:45.215Z,29.03
2019-01-24T11:51:46.120Z,24.80
2019-01-24T11:54:39.202Z,23.90
2019-01-24T11:57:30.920Z,18.60
2019-01-24T12:00:22.960Z,15.43
2019-01-24T12:03:01.724Z,22.00
2019-01-24T12:05:42.470Z,19.20
2019-01-24T12:08:17.360Z,20.40
2019-01-24T12:11:30.687Z,18.20
2019-01-24T12:14:29.252Z,18.97
2019-01-24T12:16:58.468Z,17.50
2019-01-24T12:20:00.277Z,20.40
2019-01-24T12:22:39.916Z,25.67
2019-01-24T12:25:23.772Z,19.17
2019-01-24T12:28:26.198Z,15.33
2019-01-24T12:31:31.422Z,17.87
2019-01-24T12:34:34.812Z,16.33
2019-01-24T12:37:20.905Z,16.73
2019-01-24T12:40:25.711Z,16.07
2019-01-24T12:43:03.958Z,20.97
2019-01-24T12:45:45.909Z,16.80
2019-01-24T12:48:32.604Z,17.50
2019-01-24T12:51:17.231Z,14.40
2019-01-24T12:53:52.718Z,15.70
2019-01-24T12:56:33.003Z,17.83
2019-01-24T12:59:07.448Z,15.20
2019-01-24T13:02:08.454Z,15.80
2019-01-24T13:05:05.613Z,15.00
2019-01-24T13:08:01.579Z,14.87
2019-01-24T13:10:49.993Z,19.27
2019-01-24T13:13:34.901Z,20.13
2019-01-24T13:16:15.237Z,17.93
2019-01-24T13:18:55.162Z,18.70
2019-01-24T13:21:46.445Z,13.90
2019-01-24T13:24:28.927Z,14.17
2019-01-24T13:27:17.646Z,18.40
2019-01-24T13:30:05.635Z,17.53
2019-01-24T13:32:50.570Z,20.57
2019-01-24T13:35:27.739Z,19.10
2019-01-24T13:38:11.007Z,16.93
2019-01-24T13:41:06.905Z,21.90
2019-01-24T13:44:01.295Z,15.70
2019-01-24T13:47:04.097Z,19.10
2019-01-24T13:49:32.532Z,21.30
2019-01-24T13:52:43.573Z,16.57
2019-01-24T13:55:29.965Z,17.27
2019-01-24T13:58:23.621Z,18.10
2019-01-24T14:01:04.466Z,19.33
2019-01-24T14:04:21.939Z,15.27
2019-01-24T14:07:07.695Z,24.70
2019-01-24T14:09:47.176Z,25.07
2019-01-24T14:12:29.070Z,17.53
2019-01-24T14:15:14.915Z,21.83
2019-01-24T14:18:42.928Z,27.47
2019-01-24T14:22:03.073Z,25.37
2019-01-24T14:24:45.618Z,23.10
2019-01-24T14:27:30.466Z,24.80
2019-01-24T14:30:21.859Z,25.83
2019-01-24T14:32:58.098Z,24.17
2019-01-24T14:36:32.389Z,23.07
2019-01-24T14:39:14.036Z,16.77
2019-01-24T14:42:14.567Z,16.73
2019-01-24T14:45:10.073Z,17.40
2019-01-24T14:48:06.022Z,20.10
2019-01-24T14:51:21.083Z,20.97
2019-01-24T14:53:57.995Z,20.03
2019-01-24T15:01:07.309Z,25.03
2019-01-24T15:03:56.038Z,21.73
2019-01-24T15:06:43.002Z,22.27
2019-01-24T15:09:16.396Z,18.53
2019-01-24T15:11:59.624Z,19.60
2019-01-24T15:14:44.556Z,19.90
2019-01-24T15:17:20.566Z,19.70
2019-01-24T15:20:22.225Z,23.27
2019-01-24T15:23:29.637Z,22.20
2019-01-24T15:26:17.077Z,22.17
2019-01-24T15:29:07.501Z,20.20
2019-01-24T15:31:46.572Z,18.83
2019-01-24T15:34:19.939Z,15.97
2019-01-24T15:36:52.835Z,16.83
2019-01-24T15:39:25.700Z,18.30
2019-01-24T15:41:58.834Z,18.03
2019-01-24T15:44:31.922Z,16.70
2019-01-24T15:47:04.881Z,21.30
2019-01-24T15:49:38.906Z,27.43
2019-01-24T15:52:12.244Z,22.23
2019-01-24T15:54:45.156Z,16.60
2019-01-24T15:57:17.982Z,18.30
2019-01-24T15:59:50.901Z,18.57
2019-01-24T16:02:23.738Z,19.73
2019-01-24T16:04:57.013Z,17.87
2019-01-24T16:07:29.798Z,18.17
2019-01-24T16:10:02.576Z,18.93
2019-01-24T16:12:36.034Z,22.23
2019-01-24T16:15:13.424Z,19.43
2019-01-24T16:17:46.227Z,19.03
2019-01-24T16:20:21.288Z,19.10
2019-01-24T16:22:54.384Z,15.30
2019-01-24T16:25:30.775Z,15.13
2019-01-24T16:28:03.786Z,14.47
2019-01-24T16:30:37.401Z,11.90
2019-01-24T16:33:10.765Z,14.47
2019-01-24T16:35:43.707Z,15.47
2019-01-24T16:38:16.617Z,12.43
2019-01-24T16:40:49.507Z,17.47
2019-01-24T16:43:22.348Z,22.60
2019-01-24T16:45:55.258Z,20.10
2019-01-24T16:48:28.321Z,14.60
2019-01-24T16:51:02.897Z,15.40
2019-01-24T16:53:36.054Z,16.97
2019-01-24T16:56:08.861Z,14.70
2019-01-24T16:58:41.585Z,15.80
2019-01-24T17:01:23.286Z,20.23
2019-01-24T17:03:56.867Z,17.77
2019-01-24T17:06:38.164Z,15.93
2019-01-24T17:09:14.363Z,18.50
2019-01-24T17:11:48.084Z,24.87
2019-01-24T17:14:22.415Z,25.57
2019-01-24T17:16:57.612Z,17.90
2019-01-24T17:19:30.771Z,16.67
2019-01-24T17:22:04.099Z,15.83
2019-01-24T17:24:39.892Z,13.47
2019-01-24T17:27:13.114Z,11.30
2019-01-24T17:29:46.220Z,15.73
2019-01-24T17:32:21.561Z,24.83
2019-01-24T17:34:56.340Z,24.73
2019-01-24T17:37:29.343Z,26.03
2019-01-24T17:40:02.462Z,19.70
2019-01-24T17:42:35.890Z,26.10
2019-01-24T17:45:11.149Z,21.10
2019-01-24T17:47:45.913Z,21.07
2019-01-24T17:50:18.896Z,18.60
2019-01-24T17:52:52.111Z,21.60
2019-01-24T17:55:58.507Z,21.17
2019-01-24T17:58:31.450Z,32.00
2019-01-24T18:01:04.501Z,32.40
2019-01-24T18:03:37.341Z,38.30
2019-01-24T18:06:10.417Z,41.63
2019-01-24T18:08:43.357Z,24.53
2019-01-24T18:11:16.218Z,24.40
2019-01-24T18:13:49.187Z,19.30
2019-01-24T18:16:22.380Z,25.17
2019-01-24T18:18:58.497Z,23.67
2019-01-24T18:21:33.108Z,24.57
2019-01-24T18:24:06.579Z,21.40
2019-01-24T18:26:39.858Z,16.83
2019-01-24T18:29:12.980Z,23.47
2019-01-24T18:31:46.725Z,23.37
2019-01-24T18:34:22.833Z,19.33
2019-01-24T18:36:56.516Z,18.83
2019-01-24T18:39:29.848Z,17.17
2019-01-24T18:42:04.807Z,14.87
2019-01-24T18:44:42.514Z,14.30
2019-01-24T18:47:17.996Z,15.23
2019-01-24T18:49:58.672Z,17.60
2019-01-24T18:52:33.542Z,15.47
2019-01-24T18:55:08.849Z,14.53
2019-01-24T18:57:42.061Z,14.83
2019-01-24T19:00:31.567Z,17.43
2019-01-24T19:03:06.427Z,15.30
2019-01-24T19:05:40.685Z,14.37
2019-01-24T19:08:14.547Z,14.17
2019-01-24T19:10:48.399Z,12.97
2019-01-24T19:13:22.920Z,16.27
2019-01-24T19:15:59.048Z,15.07
2019-01-24T19:18:32.361Z,14.20
2019-01-24T19:21:05.524Z,13.07
2019-01-24T19:28:13.222Z,18.77
2019-01-24T19:30:50.284Z,22.10
2019-01-24T19:33:23.331Z,18.70
2019-01-24T19:36:00.342Z,21.43
2019-01-24T19:38:36.534Z,18.10
2019-01-24T19:41:11.169Z,15.90
2019-01-24T19:43:44.584Z,20.43
2019-01-24T19:46:18.163Z,18.97
2019-01-24T19:48:55.378Z,19.87
2019-01-24T19:51:30.328Z,19.83
2019-01-24T19:54:04.548Z,18.03
2019-01-24T19:56:38.043Z,17.93
2019-01-24T19:59:11.927Z,17.70
2019-01-24T20:01:58.031Z,21.07
2019-01-24T20:04:33.933Z,18.73
2019-01-24T20:07:07.250Z,16.30
2019-01-24T20:09:40.421Z,15.70
2019-01-24T20:12:13.461Z,19.00
2019-01-24T20:14:47.959Z,18.63
2019-01-24T20:17:21.604Z,17.03
2019-01-24T20:19:54.410Z,17.03
2019-01-24T20:22:27.305Z,18.03
2019-01-24T20:25:00.254Z,16.40
2019-01-24T20:27:33.151Z,17.90
2019-01-24T20:30:09.586Z,22.63
2019-01-24T20:32:43.943Z,18.30
2019-01-24T20:35:23.790Z,19.33
2019-01-24T20:37:56.783Z,22.97
2019-01-24T20:40:29.580Z,20.63
2019-01-24T20:43:02.566Z,24.67
2019-01-24T20:45:35.397Z,21.20
2019-01-24T20:48:09.275Z,18.10
2019-01-24T20:50:42.009Z,20.77
2019-01-24T20:53:14.823Z,22.07
2019-01-24T20:55:47.573Z,24.83
2019-01-24T20:58:21.323Z,24.13
2019-01-24T21:00:54.192Z,22.10
2019-01-24T21:03:26.995Z,21.43
2019-01-24T21:05:59.879Z,21.27
2019-01-24T21:08:32.617Z,21.70
2019-01-24T21:11:05.490Z,19.83
2019-01-24T21:13:38.276Z,22.53
2019-01-24T21:16:11.229Z,24.10
2019-01-24T21:18:44.094Z,17.73
2019-01-24T21:21:16.803Z,20.63
2019-01-24T21:23:50.759Z,20.30
2019-01-24T21:26:23.507Z,16.40
2019-01-24T21:28:56.302Z,18.90
2019-01-24T21:31:29.135Z,18.93
2019-01-24T21:34:01.910Z,20.07
2019-01-24T21:36:34.841Z,23.43
2019-01-24T21:39:09.740Z,28.37
2019-01-24T21:41:43.040Z,21.33
2019-01-24T21:44:15.917Z,22.17
2019-01-24T21:46:48.717Z,22.00
2019-01-24T21:49:21.572Z,22.83
2019-01-24T21:51:56.499Z,19.00
2019-01-24T21:54:29.236Z,20.83
2019-01-24T21:57:01.922Z,21.43
2019-01-24T21:59:34.822Z,24.47
2019-01-24T22:02:08.614Z,27.40
2019-01-24T22:04:41.500Z,24.27
2019-01-24T22:07:14.317Z,21.80
2019-01-24T22:09:47.190Z,22.70
2019-01-24T22:12:19.924Z,22.83
2019-01-24T22:14:52.705Z,23.37
2019-01-24T22:17:25.454Z,21.40
2019-01-24T22:19:58.194Z,22.93
2019-01-24T22:22:30.940Z,22.03
2019-01-24T22:25:03.825Z,20.83
2019-01-24T22:27:36.713Z,19.70
2019-01-24T22:30:26.264Z,22.43
2019-01-24T22:32:59.062Z,29.27
2019-01-24T22:35:31.860Z,25.87
2019-01-24T22:38:05.443Z,27.30
2019-01-24T22:40:38.213Z,25.87
2019-01-24T22:43:10.994Z,21.70
2019-01-24T22:45:43.845Z,21.30
2019-01-24T22:48:16.573Z,22.40
2019-01-24T22:50:49.367Z,22.77
2019-01-24T22:53:22.389Z,23.83
2019-01-24T22:55:55.261Z,20.87
2019-01-24T22:58:28.005Z,25.50
2019-01-24T23:01:55.516Z,22.67
2019-01-24T23:04:36.866Z,24.03
2019-01-24T23:07:09.935Z,26.17
2019-01-24T23:09:44.209Z,30.63
2019-01-24T23:12:17.197Z,25.13
2019-01-24T23:15:04.160Z,25.33
2019-01-24T23:17:36.939Z,26.87
2019-01-24T23:20:18.897Z,27.57
2019-01-24T23:22:54.326Z,24.67
2019-01-24T23:25:30.761Z,24.20
2019-01-24T23:28:06.601Z,23.70
2019-01-24T23:30:52.656Z,23.53
2019-01-24T23:33:47.560Z,24.90
2019-01-24T23:36:24.003Z,26.20
2019-01-24T23:38:56.785Z,27.57
2019-01-24T23:41:29.627Z,28.37
2019-01-24T23:44:02.333Z,27.70
2019-01-24T23:46:35.130Z,26.23
2019-01-24T23:49:07.966Z,27.33
2019-01-24T23:51:40.772Z,26.67
2019-01-24T23:54:13.543Z,24.23
2019-01-24T23:56:46.251Z,24.20
2019-01-24T23:59:18.946Z,22.63
